sensor_id;sensor_type;location;lat;lon;timestamp;pressure;altitude;pressure_sealevel;temperature;humidity
8051;BME280;4068;42.158;24.732;2023-12-20T00:01:40;100075.59;;;0.70;100.00
8051;BME280;4068;42.158;24.732;2023-12-20T00:04:06;100109.31;;;0.76;100.00
8051;BME280;4068;42.158;24.732;2023-12-20T00:06:31;100099.13;;;0.68;100.00
8051;BME280;4068;42.158;24.732;2023-12-20T00:08:57;100104.25;;;0.72;100.00
8051;BME280;4068;42.158;24.732;2023-12-20T00:11:25;100099.13;;;0.68;100.00
8051;BME280;4068;42.158;24.732;2023-12-20T00:13:50;100102.38;;;0.75;100.00
8051;BME280;4068;42.158;24.732;2023-12-20T00:16:16;100092.00;;;0.74;100.00
8051;BME280;4068;42.158;24.732;2023-12-20T00:18:42;100072.00;;;0.73;100.00
8051;BME280;4068;42.158;24.732;2023-12-20T00:21:07;100097.59;;;0.90;100.00
8051;BME280;4068;42.158;24.732;2023-12-20T00:23:33;100071.06;;;0.75;100.00
8051;BME280;4068;42.158;24.732;2023-12-20T00:25:58;100099.06;;;0.98;100.00
8051;BME280;4068;42.158;24.732;2023-12-20T00:28:24;100064.69;;;0.84;100.00
8051;BME280;4068;42.158;24.732;2023-12-20T00:30:49;100088.56;;;1.00;100.00
8051;BME280;4068;42.158;24.732;2023-12-20T00:33:15;100077.41;;;0.95;100.00
8051;BME280;4068;42.158;24.732;2023-12-20T00:35:40;100071.50;;;0.88;100.00
8051;BME280;4068;42.158;24.732;2023-12-20T00:38:06;100076.16;;;0.78;100.00
8051;BME280;4068;42.158;24.732;2023-12-20T00:40:32;100067.66;;;0.73;100.00
8051;BME280;4068;42.158;24.732;2023-12-20T00:42:58;100073.88;;;0.69;100.00
8051;BME280;4068;42.158;24.732;2023-12-20T00:45:23;100058.44;;;0.61;100.00
8051;BME280;4068;42.158;24.732;2023-12-20T00:47:49;100061.03;;;0.61;100.00
8051;BME280;4068;42.158;24.732;2023-12-20T00:50:14;100062.81;;;0.61;100.00
8051;BME280;4068;42.158;24.732;2023-12-20T00:52:40;100056.88;;;0.56;100.00
8051;BME280;4068;42.158;24.732;2023-12-20T00:55:06;100054.41;;;0.51;100.00
8051;BME280;4068;42.158;24.732;2023-12-20T00:57:31;100034.03;;;0.34;100.00
8051;BME280;4068;42.158;24.732;2023-12-20T00:59:57;100049.38;;;0.45;100.00
8051;BME280;4068;42.158;24.732;2023-12-20T01:02:22;100049.38;;;0.45;100.00
8051;BME280;4068;42.158;24.732;2023-12-20T01:04:48;100037.16;;;0.45;100.00
8051;BME280;4068;42.158;24.732;2023-12-20T01:07:13;100034.56;;;0.45;100.00
8051;BME280;4068;42.158;24.732;2023-12-20T01:09:39;100044.06;;;0.48;100.00
8051;BME280;4068;42.158;24.732;2023-12-20T01:12:05;100038.84;;;0.48;100.00
8051;BME280;4068;42.158;24.732;2023-12-20T01:14:30;100036.22;;;0.48;100.00
8051;BME280;4068;42.158;24.732;2023-12-20T01:16:56;100033.53;;;0.51;100.00
8051;BME280;4068;42.158;24.732;2023-12-20T01:19:21;100031.78;;;0.51;100.00
8051;BME280;4068;42.158;24.732;2023-12-20T01:21:47;100021.41;;;0.50;100.00
8051;BME280;4068;42.158;24.732;2023-12-20T01:24:12;100018.91;;;0.45;100.00
8051;BME280;4068;42.158;24.732;2023-12-20T01:26:38;100017.22;;;0.43;100.00
8051;BME280;4068;42.158;24.732;2023-12-20T01:29:03;100018.09;;;0.43;100.00
8051;BME280;4068;42.158;24.732;2023-12-20T01:31:29;100012.94;;;0.42;100.00
8051;BME280;4068;42.158;24.732;2023-12-20T01:33:54;100011.13;;;0.44;100.00
8051;BME280;4068;42.158;24.732;2023-12-20T01:36:20;99984.97;;;0.19;100.00
8051;BME280;4068;42.158;24.732;2023-12-20T01:38:45;100006.16;;;0.36;100.00
8051;BME280;4068;42.158;24.732;2023-12-20T01:41:10;100011.31;;;0.38;100.00
8051;BME280;4068;42.158;24.732;2023-12-20T01:43:36;100002.81;;;0.31;100.00
8051;BME280;4068;42.158;24.732;2023-12-20T01:46:02;100001.31;;;0.24;100.00
8051;BME280;4068;42.158;24.732;2023-12-20T01:48:29;99994.41;;;0.21;100.00
8051;BME280;4068;42.158;24.732;2023-12-20T01:50:55;99996.56;;;0.08;100.00
8051;BME280;4068;42.158;24.732;2023-12-20T01:53:23;99992.41;;;0.01;100.00
8051;BME280;4068;42.158;24.732;2023-12-20T01:55:50;99994.38;;;-0.07;100.00
8051;BME280;4068;42.158;24.732;2023-12-20T01:58:18;99967.78;;;-0.19;100.00
8051;BME280;4068;42.158;24.732;2023-12-20T02:00:44;99946.47;;;-0.33;100.00
8051;BME280;4068;42.158;24.732;2023-12-20T02:03:10;99970.44;;;-0.20;100.00
8051;BME280;4068;42.158;24.732;2023-12-20T02:05:37;99922.56;;;-0.47;100.00
8051;BME280;4068;42.158;24.732;2023-12-20T02:08:03;99949.19;;;-0.36;100.00
8051;BME280;4068;42.158;24.732;2023-12-20T02:10:29;99914.84;;;-0.50;100.00
8051;BME280;4068;42.158;24.732;2023-12-20T02:12:55;99955.88;;;-0.27;100.00
8051;BME280;4068;42.158;24.732;2023-12-20T02:15:20;99954.00;;;-0.22;100.00
8051;BME280;4068;42.158;24.732;2023-12-20T02:17:47;99953.09;;;-0.21;100.00
8051;BME280;4068;42.158;24.732;2023-12-20T02:20:13;99953.25;;;-0.27;100.00
8051;BME280;4068;42.158;24.732;2023-12-20T02:22:39;99952.53;;;-0.31;100.00
8051;BME280;4068;42.158;24.732;2023-12-20T02:25:04;99916.72;;;-0.54;100.00
8051;BME280;4068;42.158;24.732;2023-12-20T02:27:30;99916.78;;;-0.57;100.00
8051;BME280;4068;42.158;24.732;2023-12-20T02:29:56;99940.63;;;-0.40;100.00
8051;BME280;4068;42.158;24.732;2023-12-20T02:32:22;99916.78;;;-0.57;100.00
8051;BME280;4068;42.158;24.732;2023-12-20T02:34:51;99947.69;;;-0.45;100.00
8051;BME280;4068;42.158;24.732;2023-12-20T02:37:17;99941.63;;;-0.45;100.00
8051;BME280;4068;42.158;24.732;2023-12-20T02:39:42;99933.78;;;-0.44;100.00
8051;BME280;4068;42.158;24.732;2023-12-20T02:42:08;99892.78;;;-0.68;100.00
8051;BME280;4068;42.158;24.732;2023-12-20T02:44:33;99912.59;;;-0.63;100.00
8051;BME280;4068;42.158;24.732;2023-12-20T02:46:59;99940.94;;;-0.52;100.00
8051;BME280;4068;42.158;24.732;2023-12-20T02:49:24;99924.28;;;-0.46;100.00
8051;BME280;4068;42.158;24.732;2023-12-20T02:51:50;99923.22;;;-0.39;100.00
8051;BME280;4068;42.158;24.732;2023-12-20T02:54:15;99922.31;;;-0.38;100.00
8051;BME280;4068;42.158;24.732;2023-12-20T02:56:41;99920.69;;;-0.42;100.00
8051;BME280;4068;42.158;24.732;2023-12-20T02:59:06;99910.47;;;-0.48;100.00
8051;BME280;4068;42.158;24.732;2023-12-20T03:01:34;99919.06;;;-0.46;100.00
8051;BME280;4068;42.158;24.732;2023-12-20T03:04:00;99898.47;;;-0.56;100.00
8051;BME280;4068;42.158;24.732;2023-12-20T03:06:26;99912.19;;;-0.49;100.00
8051;BME280;4068;42.158;24.732;2023-12-20T03:08:51;99914.91;;;-0.52;100.00
8051;BME280;4068;42.158;24.732;2023-12-20T03:11:17;99910.63;;;-0.55;100.00
8051;BME280;4068;42.158;24.732;2023-12-20T03:13:42;99915.94;;;-0.58;100.00
8051;BME280;4068;42.158;24.732;2023-12-20T03:16:11;99909.91;;;-0.60;100.00
8051;BME280;4068;42.158;24.732;2023-12-20T03:18:37;99906.41;;;-0.59;100.00
8051;BME280;4068;42.158;24.732;2023-12-20T03:21:06;99883.22;;;-0.68;100.00
8051;BME280;4068;42.158;24.732;2023-12-20T03:23:32;99907.13;;;-0.54;100.00
8051;BME280;4068;42.158;24.732;2023-12-20T03:26:00;99880.53;;;-0.65;100.00
8051;BME280;4068;42.158;24.732;2023-12-20T03:28:29;99905.25;;;-0.48;100.00
8051;BME280;4068;42.158;24.732;2023-12-20T03:30:55;99869.31;;;-0.67;100.00
8051;BME280;4068;42.158;24.732;2023-12-20T03:33:20;99892.97;;;-0.45;100.00
8051;BME280;4068;42.158;24.732;2023-12-20T03:35:46;99894.75;;;-0.45;100.00
8051;BME280;4068;42.158;24.732;2023-12-20T03:38:11;99862.00;;;-0.56;100.00
8051;BME280;4068;42.158;24.732;2023-12-20T03:40:37;99890.94;;;-0.35;100.00
8051;BME280;4068;42.158;24.732;2023-12-20T03:43:03;99890.06;;;-0.34;100.00
8051;BME280;4068;42.158;24.732;2023-12-20T03:45:28;99885.06;;;-0.42;100.00
8051;BME280;4068;42.158;24.732;2023-12-20T03:47:54;99888.53;;;-0.41;100.00
8051;BME280;4068;42.158;24.732;2023-12-20T03:50:25;99884.31;;;-0.45;100.00
8051;BME280;4068;42.158;24.732;2023-12-20T03:52:51;99883.50;;;-0.47;100.00
8051;BME280;4068;42.158;24.732;2023-12-20T03:55:16;99899.47;;;-0.02;100.00
8051;BME280;4068;42.158;24.732;2023-12-20T03:57:42;99883.00;;;-0.02;100.00
8051;BME280;4068;42.158;24.732;2023-12-20T04:00:08;99890.75;;;0.28;72.66
8051;BME280;4068;42.158;24.732;2023-12-20T04:02:37;99874.41;;;0.21;53.98
8051;BME280;4068;42.158;24.732;2023-12-20T04:05:03;99892.50;;;0.27;44.51
8051;BME280;4068;42.158;24.732;2023-12-20T04:07:30;99892.84;;;0.16;42.03
8051;BME280;4068;42.158;24.732;2023-12-20T04:09:55;99886.00;;;0.12;40.69
8051;BME280;4068;42.158;24.732;2023-12-20T04:12:21;99885.69;;;0.23;39.86
8051;BME280;4068;42.158;24.732;2023-12-20T04:14:46;99877.84;;;0.23;38.36
8051;BME280;4068;42.158;24.732;2023-12-20T04:17:12;99879.00;;;0.14;38.09
8051;BME280;4068;42.158;24.732;2023-12-20T04:19:37;99878.03;;;0.17;39.14
8051;BME280;4068;42.158;24.732;2023-12-20T04:22:03;99876.94;;;-0.03;40.57
8051;BME280;4068;42.158;24.732;2023-12-20T04:24:28;99882.38;;;-0.10;43.36
8051;BME280;4068;42.158;24.732;2023-12-20T04:26:54;99882.63;;;-0.18;47.02
8051;BME280;4068;42.158;24.732;2023-12-20T04:29:19;99876.69;;;-0.23;52.13
8051;BME280;4068;42.158;24.732;2023-12-20T04:31:45;99876.03;;;-0.30;57.49
8051;BME280;4068;42.158;24.732;2023-12-20T04:34:10;99882.13;;;-0.31;65.48
8051;BME280;4068;42.158;24.732;2023-12-20T04:36:36;99875.47;;;-0.40;77.14
8051;BME280;4068;42.158;24.732;2023-12-20T04:39:01;99872.22;;;-0.48;93.39
8051;BME280;4068;42.158;24.732;2023-12-20T04:41:27;99876.66;;;-0.52;100.00
8051;BME280;4068;42.158;24.732;2023-12-20T04:43:53;99874.16;;;-0.55;100.00
8051;BME280;4068;42.158;24.732;2023-12-20T04:46:18;99864.81;;;-0.62;100.00
8051;BME280;4068;42.158;24.732;2023-12-20T04:48:43;99862.09;;;-0.59;100.00
8051;BME280;4068;42.158;24.732;2023-12-20T04:51:09;99863.13;;;-0.64;100.00
8051;BME280;4068;42.158;24.732;2023-12-20T04:53:34;99859.66;;;-0.63;100.00
8051;BME280;4068;42.158;24.732;2023-12-20T04:56:00;99857.94;;;-0.64;100.00
8051;BME280;4068;42.158;24.732;2023-12-20T04:58:26;99863.13;;;-0.64;100.00
8051;BME280;4068;42.158;24.732;2023-12-20T05:00:51;99861.34;;;-0.62;100.00
8051;BME280;4068;42.158;24.732;2023-12-20T05:03:17;99833.00;;;-0.73;100.00
8051;BME280;4068;42.158;24.732;2023-12-20T05:05:43;99858.59;;;-0.58;100.00
8051;BME280;4068;42.158;24.732;2023-12-20T05:08:08;99838.81;;;-0.63;100.00
8051;BME280;4068;42.158;24.732;2023-12-20T05:10:33;99818.56;;;-0.83;100.00
8051;BME280;4068;42.158;24.732;2023-12-20T05:13:00;99838.00;;;-0.65;100.00
8051;BME280;4068;42.158;24.732;2023-12-20T05:15:25;99838.72;;;-0.60;100.00
8051;BME280;4068;42.158;24.732;2023-12-20T05:17:51;99844.66;;;-0.55;100.00
8051;BME280;4068;42.158;24.732;2023-12-20T05:20:16;99798.34;;;-0.75;100.00
8051;BME280;4068;42.158;24.732;2023-12-20T05:22:41;99825.78;;;-0.63;100.00
8051;BME280;4068;42.158;24.732;2023-12-20T05:25:07;99796.94;;;-0.85;100.00
8051;BME280;4068;42.158;24.732;2023-12-20T05:27:33;99831.00;;;-0.63;100.00
8051;BME280;4068;42.158;24.732;2023-12-20T05:29:59;99831.19;;;-0.70;100.00
8051;BME280;4068;42.158;24.732;2023-12-20T05:32:25;99827.84;;;-0.75;100.00
8051;BME280;4068;42.158;24.732;2023-12-20T05:34:50;99826.28;;;-0.80;100.00
8051;BME280;4068;42.158;24.732;2023-12-20T05:37:16;99814.91;;;-0.78;100.00
8051;BME280;4068;42.158;24.732;2023-12-20T05:39:41;99820.84;;;-0.73;100.00
8051;BME280;4068;42.158;24.732;2023-12-20T05:42:06;99800.81;;;-0.71;100.00
8051;BME280;4068;42.158;24.732;2023-12-20T05:44:32;99818.63;;;-0.57;100.00
8051;BME280;4068;42.158;24.732;2023-12-20T05:46:57;99812.28;;;-0.48;100.00
8051;BME280;4068;42.158;24.732;2023-12-20T05:49:23;99818.28;;;-0.46;100.00
8051;BME280;4068;42.158;24.732;2023-12-20T05:51:48;99811.31;;;-0.44;100.00
8051;BME280;4068;42.158;24.732;2023-12-20T05:54:16;99800.34;;;-0.55;100.00
8051;BME280;4068;42.158;24.732;2023-12-20T05:56:41;99812.25;;;-0.46;100.00
8051;BME280;4068;42.158;24.732;2023-12-20T05:59:07;99802.81;;;-0.50;100.00
8051;BME280;4068;42.158;24.732;2023-12-20T06:01:32;99796.56;;;-0.45;100.00
8051;BME280;4068;42.158;24.732;2023-12-20T06:03:58;99795.56;;;-0.41;100.00
8051;BME280;4068;42.158;24.732;2023-12-20T06:06:23;99760.59;;;-0.62;100.00
8051;BME280;4068;42.158;24.732;2023-12-20T06:08:49;99764.34;;;-0.42;100.00
8051;BME280;4068;42.158;24.732;2023-12-20T06:11:14;99744.16;;;0.16;100.00
8051;BME280;4068;42.158;24.732;2023-12-20T06:13:40;99792.56;;;0.76;100.00
8051;BME280;4068;42.158;24.732;2023-12-20T06:16:06;99759.59;;;0.48;100.00
8051;BME280;4068;42.158;24.732;2023-12-20T06:18:32;99797.84;;;0.49;100.00
8051;BME280;4068;42.158;24.732;2023-12-20T06:20:58;99799.69;;;0.45;100.00
8051;BME280;4068;42.158;24.732;2023-12-20T06:23:23;99798.38;;;0.33;100.00
8051;BME280;4068;42.158;24.732;2023-12-20T06:25:49;99794.81;;;0.36;100.00
8051;BME280;4068;42.158;24.732;2023-12-20T06:28:14;99789.78;;;0.30;100.00
8051;BME280;4068;42.158;24.732;2023-12-20T06:30:40;99795.59;;;0.38;100.00
8051;BME280;4068;42.158;24.732;2023-12-20T06:33:05;99790.66;;;0.30;100.00
8051;BME280;4068;42.158;24.732;2023-12-20T06:35:32;99795.09;;;0.27;100.00
8051;BME280;4068;42.158;24.732;2023-12-20T06:37:58;99800.25;;;0.28;100.00
8051;BME280;4068;42.158;24.732;2023-12-20T06:40:23;99802.41;;;0.42;100.00
8051;BME280;4068;42.158;24.732;2023-12-20T06:42:49;99802.19;;;0.48;100.00
8051;BME280;4068;42.158;24.732;2023-12-20T06:45:14;99799.56;;;0.48;100.00
8051;BME280;4068;42.158;24.732;2023-12-20T06:47:40;99794.09;;;0.56;100.00
8051;BME280;4068;42.158;24.732;2023-12-20T06:50:05;99785.63;;;0.49;100.00
8051;BME280;4068;42.158;24.732;2023-12-20T06:52:33;99796.56;;;0.61;100.00
8051;BME280;4068;42.158;24.732;2023-12-20T06:54:59;99784.50;;;0.57;100.00
8051;BME280;4068;42.158;24.732;2023-12-20T06:57:24;99794.34;;;0.74;100.00
8051;BME280;4068;42.158;24.732;2023-12-20T06:59:51;99788.22;;;0.75;100.00
8051;BME280;4068;42.158;24.732;2023-12-20T07:02:17;99791.88;;;0.94;100.00
8051;BME280;4068;42.158;24.732;2023-12-20T07:04:43;99767.56;;;0.92;100.00
8051;BME280;4068;42.158;24.732;2023-12-20T07:07:08;99792.63;;;1.22;100.00
8051;BME280;4068;42.158;24.732;2023-12-20T07:09:34;99759.16;;;1.08;100.00
8051;BME280;4068;42.158;24.732;2023-12-20T07:11:59;99780.69;;;1.36;100.00
8051;BME280;4068;42.158;24.732;2023-12-20T07:14:25;99778.47;;;1.49;100.00
8051;BME280;4068;42.158;24.732;2023-12-20T07:16:51;99773.47;;;1.65;100.00
8051;BME280;4068;42.158;24.732;2023-12-20T07:19:17;99769.22;;;1.85;100.00
8051;BME280;4068;42.158;24.732;2023-12-20T07:21:42;99756.88;;;1.88;100.00
8051;BME280;4068;42.158;24.732;2023-12-20T07:24:08;99759.28;;;1.93;100.00
8051;BME280;4068;42.158;24.732;2023-12-20T07:26:34;99745.38;;;1.93;100.00
8051;BME280;4068;42.158;24.732;2023-12-20T07:29:00;99727.13;;;1.91;100.00
8051;BME280;4068;42.158;24.732;2023-12-20T07:31:25;99747.59;;;2.02;100.00
8051;BME280;4068;42.158;24.732;2023-12-20T07:33:51;99737.31;;;2.18;100.00
8051;BME280;4068;42.158;24.732;2023-12-20T07:36:16;99751.25;;;2.39;100.00
8051;BME280;4068;42.158;24.732;2023-12-20T07:38:42;99762.19;;;2.49;100.00
8051;BME280;4068;42.158;24.732;2023-12-20T07:41:12;99750.97;;;2.66;100.00
8051;BME280;4068;42.158;24.732;2023-12-20T07:43:37;99755.97;;;2.91;100.00
8051;BME280;4068;42.158;24.732;2023-12-20T07:46:07;99724.84;;;2.83;100.00
8051;BME280;4068;42.158;24.732;2023-12-20T07:48:35;99753.19;;;3.13;100.00
8051;BME280;4068;42.158;24.732;2023-12-20T07:51:01;99745.44;;;3.29;100.00
8051;BME280;4068;42.158;24.732;2023-12-20T07:53:26;99745.13;;;3.54;100.00
8051;BME280;4068;42.158;24.732;2023-12-20T07:55:52;99746.22;;;3.68;100.00
8051;BME280;4068;42.158;24.732;2023-12-20T07:58:18;99744.34;;;3.89;100.00
8051;BME280;4068;42.158;24.732;2023-12-20T08:00:44;99733.22;;;4.01;100.00
8051;BME280;4068;42.158;24.732;2023-12-20T08:03:09;99739.41;;;4.18;100.00
8051;BME280;4068;42.158;24.732;2023-12-20T08:05:35;99708.69;;;4.20;100.00
8051;BME280;4068;42.158;24.732;2023-12-20T08:08:00;99736.38;;;4.25;100.00
8051;BME280;4068;42.158;24.732;2023-12-20T08:10:26;99731.44;;;4.02;100.00
8051;BME280;4068;42.158;24.732;2023-12-20T08:12:52;99719.28;;;4.01;100.00
8051;BME280;4068;42.158;24.732;2023-12-20T08:15:17;99733.31;;;4.17;100.00
8051;BME280;4068;42.158;24.732;2023-12-20T08:17:43;99719.41;;;4.15;100.00
8051;BME280;4068;42.158;24.732;2023-12-20T08:20:09;99701.34;;;4.09;100.00
8051;BME280;4068;42.158;24.732;2023-12-20T08:22:34;99736.47;;;4.57;100.00
8051;BME280;4068;42.158;24.732;2023-12-20T08:25:00;99713.03;;;4.70;100.00
8051;BME280;4068;42.158;24.732;2023-12-20T08:27:25;99727.34;;;4.98;100.00
8051;BME280;4068;42.158;24.732;2023-12-20T08:29:51;99712.41;;;4.98;100.00
8051;BME280;4068;42.158;24.732;2023-12-20T08:32:16;99727.84;;;5.36;100.00
8051;BME280;4068;42.158;24.732;2023-12-20T08:34:42;99722.75;;;5.49;100.00
8051;BME280;4068;42.158;24.732;2023-12-20T08:37:07;99711.53;;;5.62;100.00
8051;BME280;4068;42.158;24.732;2023-12-20T08:39:33;99714.41;;;5.73;100.00
8051;BME280;4068;42.158;24.732;2023-12-20T08:41:59;99707.72;;;5.98;100.00
8051;BME280;4068;42.158;24.732;2023-12-20T08:44:24;99705.31;;;6.24;100.00
8051;BME280;4068;42.158;24.732;2023-12-20T08:46:50;99710.06;;;6.33;100.00
8051;BME280;4068;42.158;24.732;2023-12-20T08:49:15;99703.75;;;6.50;100.00
8051;BME280;4068;42.158;24.732;2023-12-20T08:51:41;99700.06;;;6.52;100.00
8051;BME280;4068;42.158;24.732;2023-12-20T08:54:07;99694.25;;;6.33;100.00
8051;BME280;4068;42.158;24.732;2023-12-20T08:56:35;99676.25;;;6.25;100.00
8051;BME280;4068;42.158;24.732;2023-12-20T08:59:01;99682.19;;;6.14;100.00
8051;BME280;4068;42.158;24.732;2023-12-20T09:01:26;99665.75;;;5.95;100.00
8051;BME280;4068;42.158;24.732;2023-12-20T09:03:52;99657.06;;;6.09;100.00
8051;BME280;4068;42.158;24.732;2023-12-20T09:06:17;99660.47;;;6.25;100.00
8051;BME280;4068;42.158;24.732;2023-12-20T09:08:43;99660.47;;;6.39;100.00
8051;BME280;4068;42.158;24.732;2023-12-20T09:11:08;99622.06;;;6.64;100.00
8051;BME280;4068;42.158;24.732;2023-12-20T09:13:34;99646.69;;;7.19;100.00
8051;BME280;4068;42.158;24.732;2023-12-20T09:15:59;99626.69;;;7.30;100.00
8051;BME280;4068;42.158;24.732;2023-12-20T09:18:25;99640.66;;;7.45;100.00
8051;BME280;4068;42.158;24.732;2023-12-20T09:20:50;99637.72;;;7.62;100.00
8051;BME280;4068;42.158;24.732;2023-12-20T09:23:16;99593.41;;;7.67;100.00
8051;BME280;4068;42.158;24.732;2023-12-20T09:25:42;99641.41;;;8.25;100.00
8051;BME280;4068;42.158;24.732;2023-12-20T09:28:08;99629.34;;;8.47;100.00
8051;BME280;4068;42.158;24.732;2023-12-20T09:30:33;99620.00;;;8.67;100.00
8051;BME280;4068;42.158;24.732;2023-12-20T09:33:00;99610.53;;;8.89;100.00
8051;BME280;4068;42.158;24.732;2023-12-20T09:35:26;99613.81;;;8.92;100.00
8051;BME280;4068;42.158;24.732;2023-12-20T09:37:51;99604.97;;;9.05;100.00
8051;BME280;4068;42.158;24.732;2023-12-20T09:40:19;99590.59;;;8.96;98.37
8051;BME280;4068;42.158;24.732;2023-12-20T09:42:57;99586.13;;;8.85;99.69
8051;BME280;4068;42.158;24.732;2023-12-20T09:45:22;99581.38;;;8.77;99.85
8051;BME280;4068;42.158;24.732;2023-12-20T09:47:50;99539.13;;;8.89;99.23
8051;BME280;4068;42.158;24.732;2023-12-20T09:50:18;99566.63;;;9.10;99.07
8051;BME280;4068;42.158;24.732;2023-12-20T09:52:46;99564.09;;;8.85;99.28
8051;BME280;4068;42.158;24.732;2023-12-20T09:55:14;99558.53;;;8.76;98.78
8051;BME280;4068;42.158;24.732;2023-12-20T09:57:39;99560.97;;;8.79;98.82
8051;BME280;4068;42.158;24.732;2023-12-20T10:00:05;99551.03;;;8.70;97.96
8051;BME280;4068;42.158;24.732;2023-12-20T10:02:32;99519.41;;;8.44;99.82
8051;BME280;4068;42.158;24.732;2023-12-20T10:05:00;99541.09;;;8.74;99.56
8051;BME280;4068;42.158;24.732;2023-12-20T10:07:26;99540.41;;;8.59;98.32
8051;BME280;4068;42.158;24.732;2023-12-20T10:09:54;99526.94;;;8.25;99.32
8051;BME280;4068;42.158;24.732;2023-12-20T10:12:21;99528.25;;;8.43;99.78
8051;BME280;4068;42.158;24.732;2023-12-20T10:14:46;99527.19;;;8.59;99.23
8051;BME280;4068;42.158;24.732;2023-12-20T10:17:12;99507.63;;;8.61;98.16
8051;BME280;4068;42.158;24.732;2023-12-20T10:19:37;99509.41;;;8.24;100.00
8051;BME280;4068;42.158;24.732;2023-12-20T10:22:06;99507.03;;;8.45;100.00
8051;BME280;4068;42.158;24.732;2023-12-20T10:24:31;99503.28;;;8.60;97.88
8051;BME280;4068;42.158;24.732;2023-12-20T10:27:04;99495.63;;;8.69;98.23
8051;BME280;4068;42.158;24.732;2023-12-20T10:29:35;99496.16;;;8.50;98.44
8051;BME280;4068;42.158;24.732;2023-12-20T10:32:27;99495.06;;;8.39;99.79
8051;BME280;4068;42.158;24.732;2023-12-20T10:34:53;99487.41;;;8.23;100.00
8051;BME280;4068;42.158;24.732;2023-12-20T10:37:19;99487.97;;;8.16;100.00
8051;BME280;4068;42.158;24.732;2023-12-20T10:39:52;99481.31;;;8.10;100.00
8051;BME280;4068;42.158;24.732;2023-12-20T10:42:22;99481.66;;;8.05;100.00
8051;BME280;4068;42.158;24.732;2023-12-20T10:44:49;99465.81;;;8.05;100.00
8051;BME280;4068;42.158;24.732;2023-12-20T10:47:15;99432.34;;;7.93;100.00
8051;BME280;4068;42.158;24.732;2023-12-20T10:49:41;99446.34;;;8.06;100.00
8051;BME280;4068;42.158;24.732;2023-12-20T10:52:07;99436.97;;;8.26;100.00
8051;BME280;4068;42.158;24.732;2023-12-20T10:54:34;99442.13;;;8.41;100.00
8051;BME280;4068;42.158;24.732;2023-12-20T10:56:59;99428.66;;;8.57;100.00
8051;BME280;4068;42.158;24.732;2023-12-20T10:59:27;99434.88;;;8.80;99.86
8051;BME280;4068;42.158;24.732;2023-12-20T11:01:55;99431.78;;;8.97;98.66
8051;BME280;4068;42.158;24.732;2023-12-20T11:04:30;99425.81;;;9.07;97.86
8051;BME280;4068;42.158;24.732;2023-12-20T11:07:17;99411.13;;;9.03;95.04
8051;BME280;4068;42.158;24.732;2023-12-20T11:09:54;99391.25;;;8.86;96.04
8051;BME280;4068;42.158;24.732;2023-12-20T11:14:56;99412.00;;;9.14;96.46
8051;BME280;4068;42.158;24.732;2023-12-20T11:17:22;99398.06;;;9.24;94.10
8051;BME280;4068;42.158;24.732;2023-12-20T11:22:20;99399.03;;;9.23;92.19
8051;BME280;4068;42.158;24.732;2023-12-20T11:24:47;99397.00;;;9.26;92.92
8051;BME280;4068;42.158;24.732;2023-12-20T11:27:13;99395.56;;;9.33;92.51
8051;BME280;4068;42.158;24.732;2023-12-20T11:29:40;99393.50;;;9.37;93.06
8051;BME280;4068;42.158;24.732;2023-12-20T11:34:59;99374.28;;;9.35;92.45
8051;BME280;4068;42.158;24.732;2023-12-20T11:37:31;99359.47;;;9.32;92.42
8051;BME280;4068;42.158;24.732;2023-12-20T11:40:02;99377.63;;;9.48;91.24
8051;BME280;4068;42.158;24.732;2023-12-20T11:42:33;99367.41;;;9.44;90.30
8051;BME280;4068;42.158;24.732;2023-12-20T11:44:59;99359.09;;;9.48;90.83
8051;BME280;4068;42.158;24.732;2023-12-20T11:47:29;99369.19;;;9.55;90.37
8051;BME280;4068;42.158;24.732;2023-12-20T11:49:55;99357.16;;;9.62;90.22
8051;BME280;4068;42.158;24.732;2023-12-20T11:52:21;99353.78;;;9.60;89.68
8051;BME280;4068;42.158;24.732;2023-12-20T11:54:46;99319.28;;;9.39;88.34
8051;BME280;4068;42.158;24.732;2023-12-20T11:57:13;99317.22;;;9.54;88.87
8051;BME280;4068;42.158;24.732;2023-12-20T11:59:40;99341.69;;;10.01;87.45
8051;BME280;4068;42.158;24.732;2023-12-20T12:02:05;99333.66;;;10.24;86.67
8051;BME280;4068;42.158;24.732;2023-12-20T12:04:31;99337.25;;;10.34;85.30
8051;BME280;4068;42.158;24.732;2023-12-20T12:06:57;99325.31;;;10.40;84.71
8051;BME280;4068;42.158;24.732;2023-12-20T12:09:22;99327.56;;;10.44;83.22
8051;BME280;4068;42.158;24.732;2023-12-20T12:11:48;99320.59;;;10.43;82.46
8051;BME280;4068;42.158;24.732;2023-12-20T12:14:13;99319.19;;;10.39;83.54
8051;BME280;4068;42.158;24.732;2023-12-20T12:16:39;99312.72;;;10.21;83.47
8051;BME280;4068;42.158;24.732;2023-12-20T12:19:06;99312.38;;;10.14;83.68
8051;BME280;4068;42.158;24.732;2023-12-20T12:21:32;99291.81;;;10.06;83.46
8051;BME280;4068;42.158;24.732;2023-12-20T12:24:08;99299.38;;;10.11;83.65
8051;BME280;4068;42.158;24.732;2023-12-20T12:26:33;99297.44;;;10.13;83.11
8051;BME280;4068;42.158;24.732;2023-12-20T12:28:59;99297.56;;;10.11;83.36
8051;BME280;4068;42.158;24.732;2023-12-20T12:31:24;99281.78;;;10.10;82.91
8051;BME280;4068;42.158;24.732;2023-12-20T12:33:51;99294.59;;;10.26;82.99
8051;BME280;4068;42.158;24.732;2023-12-20T12:36:17;99266.94;;;10.18;83.28
8051;BME280;4068;42.158;24.732;2023-12-20T12:38:43;99295.91;;;10.31;83.01
8051;BME280;4068;42.158;24.732;2023-12-20T12:41:09;99294.00;;;10.33;83.28
8051;BME280;4068;42.158;24.732;2023-12-20T12:43:35;99273.25;;;10.39;83.83
8051;BME280;4068;42.158;24.732;2023-12-20T12:46:01;99280.00;;;10.31;83.14
8051;BME280;4068;42.158;24.732;2023-12-20T12:48:27;99282.28;;;10.36;82.95
8051;BME280;4068;42.158;24.732;2023-12-20T12:50:53;99272.41;;;10.38;83.01
8051;BME280;4068;42.158;24.732;2023-12-20T12:53:19;99270.03;;;10.35;82.82
8051;BME280;4068;42.158;24.732;2023-12-20T12:55:45;99267.69;;;10.42;83.43
8051;BME280;4068;42.158;24.732;2023-12-20T12:58:11;99239.66;;;10.39;83.29
8051;BME280;4068;42.158;24.732;2023-12-20T13:00:37;99252.56;;;10.53;83.39
8051;BME280;4068;42.158;24.732;2023-12-20T13:03:02;99267.41;;;10.66;82.92
8051;BME280;4068;42.158;24.732;2023-12-20T13:05:29;99265.69;;;10.55;83.09
8051;BME280;4068;42.158;24.732;2023-12-20T13:07:55;99264.72;;;10.56;83.96
8051;BME280;4068;42.158;24.732;2023-12-20T13:10:21;99272.56;;;10.58;84.11